Grindstone Creek Rancheria, California
Current Conditions -  °F | °C
As of 11:55 PM on Friday 24 Oct 2014 (Local Time) from KCIC Reporting Station
Overcast Overcast  
Wind Chill: 64°   Ceiling: 5000
Heat Index: 64°   Visibility: 10mi
Dew Point: 50°   Wind: 14mph
Humidity: 59%   Direction: 170°S
Pressure: 29.88"   Gusts: NA
Location:  39.5562°N, 122.604°W
Report Text: KCIC 250655Z AUTO 17012KT 10SM OVC050 18/10 A2988 RMK AO1
Loading
Personal Weather Stations






























Interactive Weather Map
Tropical Storm Tracking
New forecast layout! Learn more

10-Day Weather Forecast

Advertisements
Track Severe Weather on mobile